Time;durP1;ratioP1;P1;durP2;ratioP2;P2;SDS_P1;SDS_P2;PMS_P1;PMS_P2;Temp;Humidity;BMP_temperature;BMP_pressure;BME280_temperature;BME280_humidity;BME280_pressure;Samples;Min_cycle;Max_cycle;Signal;HPM_P1;HPM_P2
2024/04/17 00:02:41;;;;;;;11.52;2.90;;;;;;;5.76;84.99;99649.38;10426593;28;20008;-76
2024/04/17 00:07:43;;;;;;;17.23;3.72;;;;;;;5.79;84.37;99658.03;10406640;28;20004;-76
2024/04/17 00:12:45;;;;;;;13.77;3.53;;;;;;;5.80;84.59;99659.72;10390173;28;20081;-76
2024/04/17 00:17:46;;;;;;;12.40;2.95;;;;;;;5.76;83.74;99671.59;10425574;28;20050;-75
2024/04/17 00:22:48;;;;;;;15.73;3.65;;;;;;;5.73;83.76;99662.00;10417318;28;20026;-76
2024/04/17 00:27:50;;;;;;;9.45;3.08;;;;;;;5.71;83.34;99665.72;10425352;28;20349;-76
2024/04/17 00:32:52;;;;;;;15.20;4.35;;;;;;;5.62;82.73;99661.03;10416950;28;20092;-76
2024/04/17 00:37:55;;;;;;;17.35;3.05;;;;;;;5.50;82.87;99660.97;10423312;28;20096;-76
2024/04/17 00:43:00;;;;;;;11.07;3.72;;;;;;;5.42;82.09;99662.47;10386959;28;20012;-76
2024/04/17 00:48:02;;;;;;;5.28;2.50;;;;;;;5.32;82.22;99659.63;10416695;28;20019;-76
2024/04/17 00:53:04;;;;;;;12.77;3.15;;;;;;;5.25;81.85;99661.00;10424345;28;20007;-76
2024/04/17 00:58:06;;;;;;;10.65;2.55;;;;;;;5.04;82.40;99658.03;10418251;28;20355;-76
2024/04/17 01:03:07;;;;;;;6.45;2.30;;;;;;;5.05;82.40;99662.41;10405670;28;20019;-76
2024/04/17 01:08:10;;;;;;;13.00;2.78;;;;;;;4.94;82.96;99664.94;10417648;28;20016;-76
2024/04/17 01:13:11;;;;;;;;;;;;;;;4.96;83.22;99670.97;10410820;28;20074;-76
2024/04/17 01:18:15;;;;;;;15.05;2.22;;;;;;;5.02;83.02;99670.63;10415626;28;19939;-76
2024/04/17 01:23:16;;;;;;;13.07;3.78;;;;;;;5.11;82.99;99675.28;10410508;28;20011;-76
2024/04/17 01:28:18;;;;;;;11.90;2.95;;;;;;;5.08;83.36;99666.66;10415730;28;20011;-76
2024/04/17 01:33:20;;;;;;;9.20;2.22;;;;;;;4.89;83.60;99667.91;10412004;28;20092;-76
2024/04/17 01:38:22;;;;;;;9.95;2.03;;;;;;;4.98;83.19;99671.72;10403843;28;20022;-76
2024/04/17 01:43:29;;;;;;;10.73;2.17;;;;;;;5.01;83.55;99672.41;10400366;28;20108;-76
2024/04/17 01:48:31;;;;;;;8.68;2.03;;;;;;;5.02;82.46;99674.13;10410345;28;20007;-76
2024/04/17 01:53:33;;;;;;;7.47;2.50;;;;;;;4.98;82.25;99674.41;10413465;28;20022;-76
2024/04/17 01:58:35;;;;;;;7.85;2.40;;;;;;;5.10;81.37;99675.38;10417742;28;20240;-76
2024/04/17 02:03:36;;;;;;;12.75;2.40;;;;;;;5.14;80.20;99674.22;10406017;28;20027;-77
2024/04/17 02:08:38;;;;;;;4.75;1.95;;;;;;;5.02;80.34;99676.78;10399824;28;20004;-76
2024/04/17 02:13:40;;;;;;;5.68;2.65;;;;;;;4.95;80.75;99672.78;10414468;28;20370;-76
2024/04/17 02:18:42;;;;;;;9.27;2.03;;;;;;;4.94;81.14;99673.78;10426989;28;20008;-76
2024/04/17 02:23:47;;;;;;;6.30;2.23;;;;;;;4.96;81.50;99676.31;10419424;28;20281;-76
2024/04/17 02:28:49;;;;;;;9.40;2.45;;;;;;;4.90;81.61;99685.56;10399617;28;20253;-76
2024/04/17 02:33:50;;;;;;;4.97;1.67;;;;;;;4.78;81.65;99681.94;10416944;28;20040;-76
2024/04/17 02:38:52;;;;;;;7.40;1.73;;;;;;;4.65;82.41;99681.06;10418766;28;20007;-75
2024/04/17 02:43:54;;;;;;;8.00;2.08;;;;;;;4.60;82.09;99689.34;10413516;28;20249;-76
2024/04/17 02:48:56;;;;;;;7.47;2.20;;;;;;;4.54;82.55;99680.94;10408098;28;20093;-76
2024/04/17 02:53:57;;;;;;;8.10;2.00;;;;;;;4.43;82.98;99686.13;10405373;28;20024;-76
2024/04/17 02:58:59;;;;;;;6.50;2.40;;;;;;;4.44;82.82;99674.53;10405499;28;20333;-76
2024/04/17 03:04:01;;;;;;;14.18;2.30;;;;;;;4.16;84.06;99698.47;10402017;28;20015;-76
2024/04/17 03:09:03;;;;;;;11.25;2.80;;;;;;;3.86;86.12;99689.81;10405885;28;20023;-76
2024/04/17 03:14:05;;;;;;;10.20;2.25;;;;;;;4.22;83.98;99691.88;10383818;28;20483;-76
2024/04/17 03:19:06;;;;;;;8.35;2.17;;;;;;;4.04;84.09;99701.94;10407177;28;20056;-76
2024/04/17 03:24:08;;;;;;;9.27;1.67;;;;;;;4.05;83.29;99706.28;10395162;28;20457;-76
2024/04/17 03:29:10;;;;;;;6.05;2.30;;;;;;;4.06;83.52;99713.31;10411280;28;20218;-76
2024/04/17 03:34:12;;;;;;;10.73;2.80;;;;;;;3.68;86.14;99707.81;10399179;28;20012;-76
2024/04/17 03:39:14;;;;;;;9.55;2.85;;;;;;;3.90;84.54;99709.94;10400496;28;20019;-76
2024/04/17 03:44:15;;;;;;;9.77;2.55;;;;;;;3.79;84.97;99707.13;10398394;28;20022;-76
2024/04/17 03:49:17;;;;;;;5.40;2.35;;;;;;;3.82;84.65;99706.94;10408719;28;20026;-76
2024/04/17 03:54:19;;;;;;;10.60;2.78;;;;;;;3.73;84.95;99714.53;10399382;28;20415;-77
2024/04/17 03:59:21;;;;;;;9.90;2.03;;;;;;;3.37;86.38;99709.69;10406166;28;20093;-76
2024/04/17 04:04:23;;;;;;;11.05;2.60;;;;;;;3.39;87.33;99723.72;10406400;28;20396;-76
2024/04/17 04:09:25;;;;;;;7.68;2.47;;;;;;;3.38;87.66;99724.69;10402815;28;20019;-76
2024/04/17 04:14:27;;;;;;;6.63;2.28;;;;;;;3.28;89.00;99721.75;10388518;28;20012;-76
2024/04/17 04:19:29;;;;;;;15.60;3.42;;;;;;;3.45;88.10;99727.81;10403816;28;20003;-76
2024/04/17 04:24:31;;;;;;;11.27;2.78;;;;;;;3.53;87.68;99732.66;10409725;28;20073;-76
2024/04/17 04:29:32;;;;;;;11.93;3.45;;;;;;;3.61;87.74;99727.72;10404725;28;20007;-76
2024/04/17 04:34:34;;;;;;;8.07;1.90;;;;;;;3.63;87.56;99737.31;10400890;28;20480;-76
2024/04/17 04:39:36;;;;;;;9.13;2.80;;;;;;;3.75;87.80;99735.66;10407459;28;20421;-76
2024/04/17 04:44:38;;;;;;;14.07;2.42;;;;;;;3.72;87.35;99742.03;10381374;28;20456;-76
2024/04/17 04:49:40;;;;;;;8.77;2.78;;;;;;;3.80;86.58;99738.88;10395331;28;20019;-76
2024/04/17 04:54:42;;;;;;;;;;;;;;;3.79;86.62;99745.16;10408100;28;20123;-76
2024/04/17 04:59:44;;;;;;;9.32;2.35;;;;;;;3.72;86.72;99749.16;10402254;28;20275;-76
2024/04/17 05:04:45;;;;;;;7.28;2.72;;;;;;;3.70;87.54;99748.38;10405599;28;20018;-76
2024/04/17 05:09:48;;;;;;;10.50;2.75;;;;;;;3.68;87.52;99748.50;10405579;28;20042;-76
2024/04/17 05:14:49;;;;;;;10.38;2.65;;;;;;;3.48;89.32;99749.75;10423372;28;20019;-76
2024/04/17 05:19:51;;;;;;;12.73;2.50;;;;;;;3.77;88.70;99752.38;10407964;28;20758;-76
2024/04/17 05:24:53;;;;;;;15.88;3.08;;;;;;;3.85;88.02;99751.91;10407749;28;20027;-76
2024/04/17 05:29:55;;;;;;;13.13;2.58;;;;;;;3.87;88.20;99748.19;10409164;28;20516;-76
2024/04/17 05:34:57;;;;;;;9.82;3.13;;;;;;;3.93;88.58;99754.91;10389787;28;20012;-76
2024/04/17 05:39:59;;;;;;;11.57;3.15;;;;;;;4.02;88.09;99750.81;10417553;28;20025;-76
2024/04/17 05:45:01;;;;;;;6.85;2.83;;;;;;;4.14;88.04;99761.53;10403749;28;20015;-77
2024/04/17 05:50:03;;;;;;;14.05;4.65;;;;;;;4.23;87.86;99768.06;10407319;28;20038;-76
2024/04/17 05:55:09;;;;;;;15.32;3.33;;;;;;;4.31;87.66;99765.75;10423513;28;20022;-77
2024/04/17 06:00:12;;;;;;;12.07;3.17;;;;;;;4.40;88.13;99772.28;10419054;28;20015;-76
2024/04/17 06:05:14;;;;;;;18.08;3.72;;;;;;;4.46;89.29;99774.53;10405359;28;20130;-76
2024/04/17 06:10:15;;;;;;;12.75;3.90;;;;;;;4.64;89.71;99776.97;10414361;28;20023;-76
2024/04/17 06:15:17;;;;;;;5.28;2.30;;;;;;;4.84;88.94;99774.66;10413665;28;20018;-76
2024/04/17 06:20:19;;;;;;;13.93;3.40;;;;;;;5.28;87.66;99772.63;10426932;28;20380;-76
2024/04/17 06:25:21;;;;;;;14.68;3.65;;;;;;;5.46;87.54;99782.03;10414840;28;20023;-76
2024/04/17 06:30:23;;;;;;;17.40;3.97;;;;;;;6.04;85.77;99787.72;10424885;28;20015;-76
2024/04/17 06:35:25;;;;;;;9.20;2.72;;;;;;;6.02;84.35;99778.97;10413281;28;20007;-76
2024/04/17 06:40:26;;;;;;;12.57;3.33;;;;;;;6.18;83.35;99776.06;10420973;28;20012;-76
2024/04/17 06:45:28;;;;;;;10.73;3.03;;;;;;;6.62;81.61;99778.13;10424643;28;20285;-76
2024/04/17 06:50:30;;;;;;;16.00;3.63;;;;;;;6.57;80.69;99785.63;10399540;28;20012;-76
2024/04/17 06:55:32;;;;;;;10.00;2.40;;;;;;;6.59;80.95;99783.72;10435560;28;20003;-76
2024/04/17 07:00:36;;;;;;;10.90;3.10;;;;;;;6.74;79.34;99781.69;10413601;28;20044;-76
2024/04/17 07:05:38;;;;;;;12.73;3.03;;;;;;;7.46;78.56;99781.63;10403294;28;20463;-76
2024/04/17 07:10:39;;;;;;;14.43;2.43;;;;;;;7.67;75.51;99775.53;10406065;28;20054;-76
2024/04/17 07:15:42;;;;;;;7.28;2.65;;;;;;;8.48;71.83;99771.75;10407181;28;20257;-76
2024/04/17 07:20:44;;;;;;;8.55;3.08;;;;;;;9.32;70.08;99771.00;10409422;28;20023;-76
2024/04/17 07:25:45;;;;;;;12.75;2.67;;;;;;;9.83;64.89;99770.16;10423464;28;20368;-77
2024/04/17 07:30:47;;;;;;;10.82;2.40;;;;;;;9.33;67.16;99770.88;10434899;28;20011;-77
2024/04/17 07:35:57;;;;;;;12.07;2.67;;;;;;;9.61;66.70;99765.81;10402929;28;20021;-76
2024/04/17 07:41:00;;;;;;;9.27;2.80;;;;;;;9.25;66.50;99773.38;10400803;28;20352;-77
2024/04/17 07:46:03;;;;;;;9.65;3.00;;;;;;;9.27;67.12;99766.91;10418789;28;20029;-77
2024/04/17 07:51:05;;;;;;;7.32;2.85;;;;;;;8.99;68.45;99775.56;10406990;28;20460;-76
2024/04/17 07:56:06;;;;;;;6.32;2.38;;;;;;;8.13;68.89;99783.44;10394548;28;20372;-76
2024/04/17 08:01:10;;;;;;;10.45;3.17;;;;;;;8.77;67.22;99776.50;10402013;28;20007;-76
2024/04/17 08:06:12;;;;;;;7.95;2.45;;;;;;;8.89;66.46;99777.31;10414734;28;20018;-76
2024/04/17 08:11:14;;;;;;;8.23;2.67;;;;;;;8.65;67.51;99781.06;10424587;28;20498;-77
2024/04/17 08:16:16;;;;;;;10.55;3.70;;;;;;;8.80;66.92;99776.25;10427641;28;20018;-76
2024/04/17 08:21:18;;;;;;;9.10;2.78;;;;;;;8.95;66.94;99774.97;10420861;28;20509;-77
2024/04/17 08:26:20;;;;;;;10.73;3.97;;;;;;;7.80;71.69;99775.44;10428281;28;20077;-76
2024/04/17 08:31:21;;;;;;;4.80;2.73;;;;;;;8.61;68.08;99784.94;10431980;28;20249;-77
2024/04/17 08:36:23;;;;;;;7.00;3.50;;;;;;;8.45;68.10;99788.03;10427872;28;20042;-76
2024/04/17 08:41:32;;;;;;;12.93;4.17;;;;;;;8.78;68.69;99783.56;10425738;28;20056;-77
2024/04/17 08:46:36;;;;;;;7.68;3.92;;;;;;;8.64;67.44;99786.53;10427450;28;20294;-76
2024/04/17 08:51:39;;;;;;;13.18;4.57;;;;;;;8.42;68.20;99788.28;10424441;28;20122;-76
2024/04/17 08:56:42;;;;;;;8.02;4.30;;;;;;;8.11;71.83;99796.06;10420948;28;20797;-75
2024/04/17 09:01:45;;;;;;;13.57;4.43;;;;;;;8.19;71.61;99792.78;10426633;28;20022;-75
2024/04/17 09:06:49;;;;;;;11.02;4.70;;;;;;;7.32;73.97;99791.66;10412873;28;20008;-75
2024/04/17 09:11:52;;;;;;;9.57;4.63;;;;;;;7.40;75.23;99790.06;10407949;28;20031;-75
2024/04/17 09:16:58;;;;;;;14.40;5.93;;;;;;;7.20;78.34;99793.44;10408853;28;20093;-75
2024/04/17 09:21:59;;;;;;;10.45;4.50;;;;;;;6.08;87.68;99799.88;10411088;28;20016;-75
2024/04/17 09:27:02;;;;;;;13.25;5.28;;;;;;;5.57;97.75;99812.38;10421863;28;20020;-75
2024/04/17 09:32:04;;;;;;;13.52;5.55;;;;;;;5.58;100.00;99822.09;10404291;28;20035;-75
2024/04/17 09:37:09;;;;;;;8.48;4.25;;;;;;;4.91;100.00;99830.13;10397201;28;20008;-75
2024/04/17 09:42:14;;;;;;;7.68;3.78;;;;;;;4.56;100.00;99818.19;10409685;28;20041;-76
2024/04/17 09:47:18;;;;;;;9.32;2.00;;;;;;;5.23;100.00;99828.88;10409230;28;20122;-76
2024/04/17 09:52:20;;;;;;;5.25;1.80;;;;;;;5.22;99.23;99824.50;10383985;28;20012;-77
2024/04/17 09:57:22;;;;;;;6.95;1.83;;;;;;;6.14;100.00;99822.56;10410485;28;20752;-76
2024/04/17 10:02:26;;;;;;;2.80;1.40;;;;;;;6.14;97.30;99826.13;10427632;28;20012;-79
2024/04/17 10:07:29;;;;;;;6.15;1.50;;;;;;;6.25;99.40;99829.81;10419970;28;20007;-78
2024/04/17 10:12:32;;;;;;;5.32;1.20;;;;;;;7.30;98.61;99820.31;10424898;28;20496;-78
2024/04/17 10:17:34;;;;;;;6.57;1.08;;;;;;;6.16;89.94;99826.00;10424935;28;20504;-77
2024/04/17 10:22:37;;;;;;;2.25;0.98;;;;;;;5.45;90.93;99836.25;10413841;28;20092;-77
2024/04/17 10:27:39;;;;;;;1.92;1.27;;;;;;;4.73;100.00;99841.03;10391842;28;20348;-77
2024/04/17 10:32:41;;;;;;;2.47;0.95;;;;;;;3.67;100.00;99836.22;10419902;28;20015;-76
2024/04/17 10:37:47;;;;;;;6.03;0.98;;;;;;;4.02;100.00;99833.22;10432683;28;20031;-76
2024/04/17 10:42:51;;;;;;;3.13;1.20;;;;;;;4.65;100.00;99830.03;10429328;28;20122;-77
2024/04/17 10:47:52;;;;;;;4.60;0.98;;;;;;;5.10;100.00;99827.13;10430011;28;20044;-76
2024/04/17 10:52:57;;;;;;;3.28;0.80;;;;;;;5.33;100.00;99814.94;10429383;28;20012;-78
2024/04/17 10:58:01;;;;;;;2.15;0.90;;;;;;;5.56;100.00;99816.00;10421611;28;20015;-76
2024/04/17 11:03:03;;;;;;;3.90;1.35;;;;;;;6.15;100.00;99821.63;10434727;28;20015;-78
2024/04/17 11:08:05;;;;;;;1.85;1.20;;;;;;;6.38;100.00;99818.13;10419060;28;20353;-76
2024/04/17 11:13:14;;;;;;;3.10;1.55;;;;;;;6.71;100.00;99816.63;10420890;28;20496;-78
2024/04/17 11:18:16;;;;;;;1.77;1.50;;;;;;;6.98;100.00;99812.91;10395734;28;20015;-77
2024/04/17 11:23:18;;;;;;;5.65;1.70;;;;;;;7.41;97.35;99818.53;10415004;28;20464;-77
2024/04/17 11:28:20;;;;;;;4.75;2.45;;;;;;;8.07;100.00;99809.84;10413883;28;20106;-77
2024/04/17 11:33:22;;;;;;;3.40;2.63;;;;;;;8.66;90.83;99811.34;10418168;28;20027;-78
2024/04/17 11:38:25;;;;;;;5.03;2.78;;;;;;;9.19;93.97;99804.22;10448059;27;20246;-77
2024/04/17 11:43:27;;;;;;;7.13;3.13;;;;;;;8.69;80.87;99817.28;10430307;28;20008;-77
2024/04/17 11:48:30;;;;;;;8.50;2.70;;;;;;;8.67;85.43;99813.91;10424663;28;20043;-77
2024/04/17 11:53:32;;;;;;;3.63;2.40;;;;;;;8.18;86.55;99807.16;10426998;28;20088;-77
2024/04/17 11:58:34;;;;;;;4.82;2.60;;;;;;;8.34;87.48;99812.13;10420693;28;20011;-77
2024/04/17 12:03:36;;;;;;;6.03;2.75;;;;;;;8.43;88.67;99802.50;10392930;28;20012;-78
2024/04/17 12:08:40;;;;;;;6.05;2.72;;;;;;;8.37;88.44;99801.19;10412134;28;20019;-77
2024/04/17 12:13:42;;;;;;;2.83;2.40;;;;;;;7.73;85.44;99797.31;10414222;28;20340;-78
2024/04/17 12:18:44;;;;;;;4.27;2.87;;;;;;;7.39;89.87;99800.91;10402643;28;20011;-77
2024/04/17 12:23:50;;;;;;;4.00;3.22;;;;;;;7.25;91.54;99802.81;10378659;28;20323;-77
2024/04/17 12:28:52;;;;;;;4.40;2.17;;;;;;;8.04;92.33;99797.56;10422071;28;20026;-77
2024/04/17 12:33:54;;;;;;;6.05;2.00;;;;;;;8.91;87.31;99797.63;10428347;28;20007;-76
2024/04/17 12:38:56;;;;;;;3.38;1.83;;;;;;;9.13;79.50;99798.50;10425104;28;20012;-75
2024/04/17 12:43:58;;;;;;;1.65;1.08;;;;;;;8.59;80.11;99798.47;10426589;28;20088;-76
2024/04/17 12:49:01;;;;;;;1.92;1.15;;;;;;;8.27;79.89;99795.69;10428829;28;20112;-75
2024/04/17 12:54:03;;;;;;;4.05;1.30;;;;;;;7.73;81.68;99791.09;10418550;28;20030;-76
2024/04/17 12:59:05;;;;;;;4.07;1.20;;;;;;;9.33;86.76;99789.63;10419397;28;20027;-76
2024/04/17 13:04:08;;;;;;;1.95;1.20;;;;;;;9.63;78.15;99771.91;10431736;28;20011;-76
2024/04/17 13:09:11;;;;;;;2.05;1.15;;;;;;;8.59;72.66;99785.09;10428704;28;20552;-76
2024/04/17 13:14:13;;;;;;;2.35;1.42;;;;;;;8.88;73.93;99786.31;10430449;28;20038;-77
2024/04/17 13:19:14;;;;;;;2.07;1.17;;;;;;;9.08;71.24;99774.81;10432029;28;20019;-76
2024/04/17 13:24:17;;;;;;;1.57;1.37;;;;;;;10.31;84.85;99772.16;10429764;28;20256;-76
2024/04/17 13:29:19;;;;;;;1.15;1.05;;;;;;;10.90;67.36;99768.59;10430069;28;20265;-76
2024/04/17 13:34:21;;;;;;;1.57;1.20;;;;;;;10.99;79.27;99766.88;10431539;28;20029;-76
2024/04/17 13:39:25;;;;;;;1.30;1.20;;;;;;;10.39;64.46;99778.56;10432285;28;20352;-76
2024/04/17 13:44:27;;;;;;;1.53;1.10;;;;;;;8.66;67.33;99781.91;10419558;28;20011;-75
2024/04/17 13:49:29;;;;;;;1.67;1.50;;;;;;;8.53;74.17;99776.69;10398565;28;20261;-76
2024/04/17 13:54:31;;;;;;;1.55;0.65;;;;;;;7.57;70.42;99795.94;10383728;28;20023;-76
2024/04/17 13:59:33;;;;;;;1.50;1.30;;;;;;;6.09;78.63;99790.91;10383667;28;20100;-76
2024/04/17 14:04:35;;;;;;;2.50;2.03;;;;;;;6.10;80.82;99792.63;10425051;28;20366;-77
2024/04/17 14:09:36;;;;;;;2.90;2.25;;;;;;;6.17;83.35;99798.34;10440540;28;20018;-76
2024/04/17 14:14:38;;;;;;;6.05;4.18;;;;;;;5.71;87.80;99798.97;10435863;28;20471;-76
2024/04/17 14:19:40;;;;;;;3.35;2.03;;;;;;;4.86;100.00;99800.34;10434366;28;20012;-77
2024/04/17 14:24:42;;;;;;;4.97;2.22;;;;;;;4.13;100.00;99802.34;10425247;28;20008;-76
2024/04/17 14:29:44;;;;;;;2.45;1.50;;;;;;;4.95;100.00;99789.91;10428406;28;20024;-77
2024/04/17 14:34:45;;;;;;;2.30;1.63;;;;;;;5.44;100.00;99775.94;10433429;28;20007;-76
2024/04/17 14:39:49;;;;;;;2.85;1.95;;;;;;;5.63;100.00;99772.84;10405831;28;20015;-75
2024/04/17 14:44:52;;;;;;;1.90;1.67;;;;;;;5.86;100.00;99773.88;10401378;28;20429;-75
2024/04/17 14:49:55;;;;;;;2.15;1.95;;;;;;;6.15;100.00;99779.81;10432866;28;20516;-75
2024/04/17 14:54:57;;;;;;;3.10;2.42;;;;;;;6.47;100.00;99773.06;10424975;28;20481;-75
2024/04/17 15:00:01;;;;;;;10.55;2.30;;;;;;;6.44;100.00;99767.97;10437012;28;20681;-76
2024/04/17 15:05:03;;;;;;;5.03;2.08;;;;;;;6.33;100.00;99774.94;10440864;28;20355;-75
2024/04/17 15:10:06;;;;;;;2.63;2.03;;;;;;;6.27;100.00;99774.53;10440046;28;20102;-75
2024/04/17 15:15:07;;;;;;;3.45;2.75;;;;;;;6.39;100.00;99773.66;10409416;28;20012;-76
2024/04/17 15:20:09;;;;;;;5.27;3.33;;;;;;;6.01;100.00;99781.78;10414522;28;20030;-76
2024/04/17 15:25:11;;;;;;;13.95;7.30;;;;;;;6.04;100.00;99774.41;10386153;28;20246;-76
2024/04/17 15:30:13;;;;;;;4.80;3.53;;;;;;;6.15;100.00;99766.47;10405376;28;20027;-76
2024/04/17 15:35:15;;;;;;;3.50;3.10;;;;;;;6.23;100.00;99771.25;10411409;28;20017;-76
2024/04/17 15:40:17;;;;;;;7.38;3.40;;;;;;;6.30;100.00;99775.16;10419131;28;20026;-76
2024/04/17 15:45:18;;;;;;;3.90;2.90;;;;;;;6.15;100.00;99782.47;10402796;28;20018;-76
2024/04/17 15:50:21;;;;;;;4.13;2.93;;;;;;;6.07;100.00;99779.50;10413493;28;20016;-76
2024/04/17 15:55:23;;;;;;;3.50;3.15;;;;;;;5.99;100.00;99779.19;10492289;28;20496;-76
2024/04/17 16:00:25;;;;;;;4.03;2.57;;;;;;;6.11;100.00;99786.31;10488810;28;20018;-76
2024/04/17 16:05:26;;;;;;;6.20;3.40;;;;;;;6.08;100.00;99791.03;10412238;28;20640;-76
2024/04/17 16:10:29;;;;;;;6.45;4.20;;;;;;;6.01;100.00;99795.94;10436586;28;20011;-76
2024/04/17 16:15:31;;;;;;;7.60;4.03;;;;;;;6.16;100.00;99799.31;10481203;28;20021;-76
2024/04/17 16:20:32;;;;;;;7.07;4.80;;;;;;;6.45;100.00;99807.03;10474106;28;20498;-77
2024/04/17 16:25:34;;;;;;;8.03;4.60;;;;;;;6.97;100.00;99804.06;10423964;28;20022;-76
2024/04/17 16:30:37;;;;;;;6.05;4.82;;;;;;;7.78;100.00;99798.75;10420939;28;20249;-76
2024/04/17 16:35:40;;;;;;;5.90;4.72;;;;;;;7.62;100.00;99810.66;10429435;28;20007;-76
2024/04/17 16:40:42;;;;;;;7.57;4.23;;;;;;;7.56;100.00;99813.81;10432422;28;20007;-75
2024/04/17 16:45:44;;;;;;;5.80;5.05;;;;;;;7.59;100.00;99810.03;10434104;28;20293;-76
2024/04/17 16:50:54;;;;;;;5.65;4.13;;;;;;;7.39;100.00;99808.91;10403306;28;20008;-76
2024/04/17 16:55:56;;;;;;;6.63;4.63;;;;;;;7.21;100.00;99809.38;10422214;28;20449;-76
2024/04/17 17:01:04;;;;;;;8.32;4.90;;;;;;;6.86;100.00;99814.66;10413206;28;20008;-75
2024/04/17 17:06:06;;;;;;;6.03;5.20;;;;;;;7.15;100.00;99815.16;10425430;28;20007;-75
2024/04/17 17:11:09;;;;;;;7.57;4.72;;;;;;;7.21;100.00;99805.81;10417364;28;20050;-76
2024/04/17 17:16:11;;;;;;;7.32;4.78;;;;;;;7.22;100.00;99815.56;10388492;28;20084;-76
2024/04/17 17:21:14;;;;;;;9.32;5.32;;;;;;;7.35;100.00;99819.00;10397651;28;20040;-76
2024/04/17 17:26:18;;;;;;;6.28;5.15;;;;;;;7.29;100.00;99816.78;10385891;28;20023;-75
2024/04/17 17:31:20;;;;;;;8.63;5.45;;;;;;;7.12;100.00;99836.75;10376778;28;20019;-76
2024/04/17 17:36:22;;;;;;;8.25;5.63;;;;;;;6.96;100.00;99842.38;10396882;28;20047;-76
2024/04/17 17:41:24;;;;;;;9.00;5.40;;;;;;;6.87;100.00;99840.41;10410466;28;20324;-76
2024/04/17 17:46:25;;;;;;;4.13;3.37;;;;;;;6.77;100.00;99844.69;10414983;28;20007;-76
2024/04/17 17:51:28;;;;;;;6.33;4.07;;;;;;;6.67;100.00;99841.00;10431908;28;20400;-76
2024/04/17 17:56:30;;;;;;;5.43;3.72;;;;;;;6.67;100.00;99846.34;10432296;28;20624;-76
2024/04/17 18:01:32;;;;;;;6.65;3.75;;;;;;;6.54;100.00;99849.91;10423953;28;20011;-75
2024/04/17 18:06:33;;;;;;;7.93;3.58;;;;;;;6.33;100.00;99844.28;10434265;28;20029;-76
2024/04/17 18:11:36;;;;;;;5.95;4.20;;;;;;;6.24;100.00;99858.28;10433685;28;20022;-73
2024/04/17 18:16:37;;;;;;;7.13;4.63;;;;;;;6.25;100.00;99861.81;10435710;28;20003;-76
2024/04/17 18:21:39;;;;;;;5.78;4.80;;;;;;;6.27;100.00;99870.56;10431383;28;20019;-76
2024/04/17 18:26:41;;;;;;;6.65;4.90;;;;;;;6.27;100.00;99868.75;10430683;28;20011;-76
2024/04/17 18:31:43;;;;;;;7.45;5.72;;;;;;;6.23;100.00;99877.94;10413889;28;20016;-76
2024/04/17 18:36:45;;;;;;;7.38;5.38;;;;;;;6.22;100.00;99884.22;10337245;28;20489;-76
2024/04/17 18:41:47;;;;;;;6.03;5.43;;;;;;;6.19;100.00;99887.09;10428151;28;20104;-76
2024/04/17 18:46:49;;;;;;;7.10;5.05;;;;;;;6.19;100.00;99884.44;10432716;28;20007;-76
2024/04/17 18:51:53;;;;;;;7.28;5.25;;;;;;;6.15;100.00;99896.28;10405859;28;20012;-76
2024/04/17 18:56:56;;;;;;;6.93;5.15;;;;;;;6.22;100.00;99907.38;10420980;28;20011;-76
2024/04/17 19:01:57;;;;;;;6.28;5.65;;;;;;;6.28;100.00;99909.59;10424204;28;20063;-76
2024/04/17 19:07:00;;;;;;;8.35;5.55;;;;;;;6.27;100.00;99921.25;10422605;28;20003;-76
2024/04/17 19:12:02;;;;;;;9.30;6.55;;;;;;;6.24;100.00;99924.13;10437238;28;20472;-76
2024/04/17 19:17:05;;;;;;;10.82;7.07;;;;;;;6.17;100.00;99932.56;10436613;28;20035;-76
2024/04/17 19:22:07;;;;;;;5.93;5.25;;;;;;;6.22;100.00;99936.72;10433198;28;20126;-76
2024/04/17 19:27:09;;;;;;;9.00;7.45;;;;;;;6.26;100.00;99939.06;10430090;28;20008;-76
2024/04/17 19:32:11;;;;;;;10.30;8.82;;;;;;;6.28;100.00;99929.16;10423012;28;20044;-75
2024/04/17 19:37:14;;;;;;;11.35;7.05;;;;;;;6.23;100.00;99935.78;10404087;28;20383;-75
2024/04/17 19:42:16;;;;;;;8.88;6.88;;;;;;;6.27;100.00;99951.44;10399011;28;20015;-77
2024/04/17 19:47:27;;;;;;;10.32;6.50;;;;;;;6.12;100.00;99941.84;10417045;27;20068;-77
2024/04/17 19:52:30;;;;;;;8.32;6.35;;;;;;;6.03;100.00;99951.31;10409154;27;20008;-75
2024/04/17 19:57:33;;;;;;;9.20;6.38;;;;;;;5.80;100.00;99962.72;10408317;28;20012;-77
2024/04/17 20:02:35;;;;;;;10.18;6.72;;;;;;;5.69;100.00;99966.94;10395792;28;20030;-77
2024/04/17 20:07:38;;;;;;;9.50;7.60;;;;;;;5.64;100.00;99970.88;10405216;28;20864;-77
2024/04/17 20:12:42;;;;;;;14.20;10.27;;;;;;;5.72;100.00;99976.56;10415660;28;20022;-77
2024/04/17 20:17:48;;;;;;;13.10;10.45;;;;;;;5.83;100.00;99986.50;10414654;28;20831;-77
2024/04/17 20:22:51;;;;;;;17.48;11.57;;;;;;;5.86;100.00;99986.28;10415665;28;20050;-77
2024/04/17 20:27:53;;;;;;;14.15;11.30;;;;;;;5.97;100.00;99986.41;10411028;28;20361;-77
2024/04/17 20:32:55;;;;;;;13.43;10.60;;;;;;;5.97;100.00;99993.56;10400315;28;20007;-76
2024/04/17 20:37:57;;;;;;;12.32;9.27;;;;;;;5.73;100.00;99994.25;10397624;28;20537;-77
2024/04/17 20:42:59;;;;;;;11.40;9.48;;;;;;;5.78;100.00;100004.59;10431566;28;20511;-76
2024/04/17 20:48:01;;;;;;;11.60;9.50;;;;;;;6.02;100.00;99996.75;10422454;28;20020;-76
2024/04/17 20:53:04;;;;;;;14.00;10.27;;;;;;;5.97;100.00;99998.88;10415420;28;20012;-77
2024/04/17 20:58:05;;;;;;;13.05;8.95;;;;;;;6.00;100.00;100004.84;10396107;28;20462;-77
2024/04/17 21:03:07;;;;;;;11.93;8.70;;;;;;;6.02;100.00;100010.94;10429344;28;20032;-77
2024/04/17 21:08:09;;;;;;;11.45;8.57;;;;;;;6.04;100.00;100021.53;10390014;28;20242;-76
2024/04/17 21:13:11;;;;;;;10.98;7.85;;;;;;;5.93;100.00;100008.91;10393039;28;20023;-76
2024/04/17 21:18:12;;;;;;;7.60;5.93;;;;;;;5.61;100.00;100011.06;10404577;28;20008;-77
2024/04/17 21:23:14;;;;;;;12.15;6.60;;;;;;;5.67;100.00;100007.97;10412805;28;20043;-77
2024/04/17 21:28:17;;;;;;;9.38;7.05;;;;;;;5.64;100.00;100018.84;10424038;28;20011;-77
2024/04/17 21:33:20;;;;;;;8.77;7.30;;;;;;;5.52;100.00;100025.00;10434870;28;20035;-76
2024/04/17 21:38:22;;;;;;;11.73;7.68;;;;;;;5.78;100.00;100026.78;10434065;28;20090;-76
2024/04/17 21:43:28;;;;;;;10.40;8.37;;;;;;;5.95;100.00;100031.84;10415093;28;20019;-77
2024/04/17 21:48:30;;;;;;;11.27;8.35;;;;;;;6.01;100.00;100038.56;10412219;28;20245;-77
2024/04/17 21:53:33;;;;;;;10.73;8.10;;;;;;;5.94;100.00;100038.13;10401561;28;20022;-76
2024/04/17 21:58:35;;;;;;;11.77;7.82;;;;;;;5.91;100.00;100041.00;10391474;28;20012;-76
2024/04/17 22:03:38;;;;;;;10.57;7.95;;;;;;;5.93;100.00;100047.09;10373141;28;20023;-77
2024/04/17 22:08:42;;;;;;;13.52;7.80;;;;;;;5.82;100.00;100054.94;10377857;28;20089;-76
2024/04/17 22:13:44;;;;;;;12.13;7.95;;;;;;;5.85;100.00;100053.91;10421123;28;20026;-76
2024/04/17 22:18:46;;;;;;;9.32;6.78;;;;;;;5.88;100.00;100059.03;10407208;28;20019;-76
2024/04/17 22:23:48;;;;;;;11.77;7.45;;;;;;;5.82;100.00;100064.75;10408365;28;20012;-76
2024/04/17 22:28:52;;;;;;;13.20;7.30;;;;;;;5.80;100.00;100064.00;10409082;28;20019;-76
2024/04/17 22:33:53;;;;;;;15.68;8.35;;;;;;;5.72;100.00;100075.16;10436503;28;20568;-76
2024/04/17 22:38:55;;;;;;;13.45;7.68;;;;;;;5.63;100.00;100083.78;10440053;28;20021;-76
2024/04/17 22:43:57;;;;;;;10.93;8.10;;;;;;;5.67;100.00;100090.59;10426274;28;20023;-76
2024/04/17 22:48:59;;;;;;;15.52;9.25;;;;;;;5.55;100.00;100088.75;10416090;28;20019;-76
2024/04/17 22:54:01;;;;;;;16.02;9.77;;;;;;;5.40;100.00;100088.78;10412655;28;20477;-75
2024/04/17 22:59:02;;;;;;;18.80;10.95;;;;;;;5.55;100.00;100088.75;10410964;28;20015;-76
2024/04/17 23:04:04;;;;;;;15.50;10.67;;;;;;;5.59;100.00;100090.25;10432045;28;20416;-75
2024/04/17 23:09:06;;;;;;;20.33;11.63;;;;;;;5.63;100.00;100094.44;10397262;28;20807;-76
2024/04/17 23:14:08;;;;;;;15.88;10.27;;;;;;;5.32;100.00;100090.19;10399664;28;20022;-76
2024/04/17 23:19:10;;;;;;;16.77;10.07;;;;;;;5.33;100.00;100083.94;10419853;28;20015;-77
2024/04/17 23:24:24;;;;;;;13.73;8.95;;;;;;;5.30;100.00;100100.13;10411367;28;20015;-77
2024/04/17 23:29:25;;;;;;;13.20;9.20;;;;;;;5.36;100.00;100105.06;10409298;28;20032;-77